METAR Data
IDs: Format: Raw Decoded Include TAF

Data at: 1623 UTC 03 Jun 2020

KSGF 031552Z 24013KT 10SM CLR 28/21 A2997 RMK AO2 SLP137 T02780211
KSGF 031452Z 24011KT 10SM CLR 27/21 A2999 RMK AO2 SLP143 T02670211 55000
KSGF 031352Z 23012KT 10SM CLR 25/20 A2999 RMK AO2 SLP142 T02500200
KSGF 031252Z 21009KT 10SM CLR 23/20 A2997 RMK AO2 SLP137 T02330200
KSGF 031152Z 18007KT 10SM CLR 20/18 A2999 RMK AO2 SLP144 T02000183 10206 20189 53000
KSGF 031052Z 19005KT 10SM CLR 19/18 A2999 RMK AO2 SLP143 T01890178
KSGF 030952Z 18007KT 10SM CLR 19/18 A2998 RMK AO2 SLP141 T01940178
KSGF 030852Z 18006KT 10SM CLR 19/18 A2999 RMK AO2 SLP143 T01940178 56013
KSGF 030752Z 18006KT 10SM CLR 19/18 A3000 RMK AO2 SLP147 T01940178
KSGF 030652Z 18006KT 10SM CLR 20/18 A3001 RMK AO2 SLP150 T02000178
KSGF 030552Z 20007KT 10SM CLR 21/18 A3003 RMK AO2 SLP156 T02060183 10272 20206 402830161 53003
KSGF 030452Z 19008KT 10SM CLR 21/18 A3003 RMK AO2 SLP157 T02060178
KSGF 030352Z 18008KT 10SM CLR 21/18 A3002 RMK AO2 SLP153 T02110178
KSGF 030252Z 18007KT 10SM CLR 22/18 A3002 RMK AO2 SLP155 T02170183 53005
KSGF 030152Z 19009KT 10SM CLR 23/18 A3001 RMK AO2 SLP151 T02330183
KSGF 030052Z 19006KT 10SM CLR 25/19 A3001 RMK AO2 SLP151 T02500194
KSGF 022352Z 18011KT 10SM FEW046 27/19 A3001 RMK AO2 SLP150 T02720194 10283 20267 58009
KSGF 022252Z 20006KT 10SM CLR 28/18 A3002 RMK AO2 SLP154 T02830183
KSGF 022152Z 21008KT 10SM CLR 28/18 A3003 RMK AO2 SLP157 T02830178
KSGF 022052Z 21006KT 10SM CLR 28/18 A3003 RMK AO2 SLP159 T02830183 56018
KSGF 021952Z 23005KT 10SM CLR 28/18 A3005 RMK AO2 SLP164 T02780183
KSGF 021852Z 24008G15KT 10SM SCT041 27/18 A3007 RMK AO2 SLP172 T02720183
KSGF 021752Z 25008KT 10SM CLR 27/18 A3009 RMK AO2 SLP178 T02670183 10267 20167 56010
KSGF 021652Z 25008KT 10SM CLR 26/18 A3010 RMK AO2 SLP181 T02610183
KSGF 021552Z 23008KT 10SM CLR 24/18 A3011 RMK AO2 SLP185 T02440183
KSGF 021452Z 21006KT 10SM CLR 21/17 A3012 RMK AO2 SLP190 T02110167 50003
KSGF 021352Z 19007KT 10SM CLR 22/17 A3012 RMK AO2 SLP189 T02170167
KSGF 021252Z 18007KT 10SM CLR 18/16 A3012 RMK AO2 SLP188 T01830161
KSGF 021152Z 18005KT 10SM CLR 17/15 A3011 RMK AO2 SLP188 T01670150 10189 20161 53010
KSGF 021052Z AUTO 18006KT 10SM CLR 16/14 A3010 RMK AO2 SLP182 T01610144
KSGF 020952Z AUTO 19006KT 10SM CLR 17/15 A3008 RMK AO2 SLP176 T01670150
KSGF 020852Z AUTO 18008KT 10SM CLR 17/15 A3008 RMK AO2 SLP175 T01720150 56007
KSGF 020752Z 18008KT 10SM CLR 17/16 A3009 RMK AO2 SLP179 T01720156
KSGF 020652Z 18007KT 10SM CLR 17/16 A3009 RMK AO2 SLP180 T01720156
KSGF 020552Z 17008KT 10SM CLR 19/16 A3010 RMK AO2 SLP184 T01890161 10261 20189 402780156 58005
KSGF 020452Z 17007KT 10SM CLR 20/16 A3012 RMK AO2 SLP188 T02000161